createdAt,value
2018-02-19T00:00:55.415Z,0.50
2018-02-19T00:03:24.452Z,0.40
2018-02-19T00:05:53.471Z,0.40
2018-02-19T00:08:21.712Z,0.30
2018-02-19T00:10:49.975Z,0.40
2018-02-19T00:13:18.214Z,0.30
2018-02-19T00:15:46.462Z,0.30
2018-02-19T00:18:14.721Z,0.30
2018-02-19T00:20:43.010Z,0.30
2018-02-19T00:23:12.011Z,0.30
2018-02-19T00:25:40.424Z,0.30
2018-02-19T00:28:08.673Z,0.30
2018-02-19T00:30:36.912Z,0.30
2018-02-19T00:33:06.134Z,0.30
2018-02-19T00:35:34.435Z,0.20
2018-02-19T00:38:02.754Z,0.30
2018-02-19T00:40:32.900Z,0.30
2018-02-19T00:43:01.291Z,0.20
2018-02-19T00:45:29.551Z,0.30
2018-02-19T00:48:08.552Z,0.30
2018-02-19T00:50:36.772Z,0.20
2018-02-19T00:53:05.038Z,0.30
2018-02-19T00:55:33.297Z,0.30
2018-02-19T00:58:01.672Z,0.30
2018-02-19T01:00:30.673Z,0.30
2018-02-19T01:02:58.923Z,0.20
2018-02-19T01:05:28.027Z,0.20
2018-02-19T01:07:57.304Z,0.20
2018-02-19T01:10:25.511Z,0.10
2018-02-19T01:12:53.794Z,0.20
2018-02-19T01:15:22.211Z,0.20
2018-02-19T01:17:50.513Z,0.10
2018-02-19T01:20:18.759Z,0.10
2018-02-19T01:22:47.006Z,0.10
2018-02-19T01:25:15.258Z,0.10
2018-02-19T01:27:43.516Z,0.10
2018-02-19T01:30:12.541Z,0.10
2018-02-19T01:32:40.782Z,0.00
2018-02-19T01:35:09.864Z,0.10
2018-02-19T01:37:38.106Z,0.10
2018-02-19T01:40:06.400Z,0.10
2018-02-19T01:42:34.679Z,0.10
2018-02-19T01:45:03.007Z,0.10
2018-02-19T01:47:31.260Z,0.10
2018-02-19T01:50:17.643Z,0.10
2018-02-19T01:52:45.906Z,0.20
2018-02-19T01:55:14.335Z,0.20
2018-02-19T01:57:42.669Z,0.20
2018-02-19T02:00:10.900Z,0.20
2018-02-19T02:02:39.158Z,0.20
2018-02-19T02:05:07.418Z,0.20
2018-02-19T02:07:35.783Z,0.20
2018-02-19T02:10:04.834Z,0.20
2018-02-19T02:12:33.137Z,0.10
2018-02-19T02:15:01.415Z,0.20
2018-02-19T02:17:29.642Z,0.20
2018-02-19T02:19:58.076Z,0.10
2018-02-19T02:22:27.133Z,0.10
2018-02-19T02:24:55.531Z,0.00
2018-02-19T02:27:23.799Z,0.00
2018-02-19T02:29:52.095Z,0.00
2018-02-19T02:32:21.118Z,0.00
2018-02-19T02:34:49.396Z,0.00
2018-02-19T02:37:17.787Z,0.10
2018-02-19T02:39:46.071Z,0.00
2018-02-19T02:42:14.319Z,0.10
2018-02-19T02:44:42.583Z,0.10
2018-02-19T02:47:10.834Z,0.10
2018-02-19T02:49:39.870Z,0.20
2018-02-19T02:52:08.199Z,0.10
2018-02-19T02:54:36.419Z,0.20
2018-02-19T02:57:04.682Z,0.20
2018-02-19T02:59:33.123Z,0.20
2018-02-19T03:02:01.356Z,0.20
2018-02-19T03:04:29.618Z,0.20
2018-02-19T03:06:57.873Z,0.20
2018-02-19T03:09:26.129Z,0.20
2018-02-19T03:11:55.172Z,0.20
2018-02-19T03:14:23.423Z,0.20
2018-02-19T03:16:51.695Z,0.20
2018-02-19T03:19:19.961Z,0.20
2018-02-19T03:21:48.279Z,0.20
2018-02-19T03:24:16.592Z,0.30
2018-02-19T03:26:44.847Z,0.30
2018-02-19T03:29:13.110Z,0.30
2018-02-19T03:31:41.414Z,0.30
2018-02-19T03:34:10.627Z,0.30
2018-02-19T03:36:39.644Z,0.30
2018-02-19T03:39:08.032Z,0.30
2018-02-19T03:41:36.407Z,0.30
2018-02-19T03:44:04.651Z,0.30
2018-02-19T03:46:33.766Z,0.30
2018-02-19T03:49:02.110Z,0.30
2018-02-19T03:51:30.335Z,0.40
2018-02-19T03:53:58.579Z,0.40
2018-02-19T03:56:26.831Z,0.40
2018-02-19T03:58:55.843Z,0.40
2018-02-19T04:01:24.232Z,0.40
2018-02-19T04:03:52.564Z,0.40
2018-02-19T04:06:20.846Z,0.40
2018-02-19T04:08:49.107Z,0.40
2018-02-19T04:11:17.370Z,0.40
2018-02-19T04:13:45.631Z,0.40
2018-02-19T04:16:13.880Z,0.40
2018-02-19T04:18:42.321Z,0.40
2018-02-19T04:21:10.590Z,0.40
2018-02-19T04:23:38.851Z,0.40
2018-02-19T04:26:08.611Z,0.30
2018-02-19T04:28:36.866Z,0.30
2018-02-19T04:31:05.143Z,0.40
2018-02-19T04:33:33.391Z,0.40
2018-02-19T04:36:01.692Z,0.40
2018-02-19T04:38:29.930Z,0.40
2018-02-19T04:40:58.189Z,0.40
2018-02-19T04:43:26.441Z,0.40
2018-02-19T04:45:54.704Z,0.40
2018-02-19T04:48:22.976Z,0.40
2018-02-19T04:50:51.987Z,0.50
2018-02-19T04:53:20.250Z,0.40
2018-02-19T04:55:48.494Z,0.50
2018-02-19T04:58:17.499Z,0.50
2018-02-19T05:00:45.774Z,0.50
2018-02-19T05:03:14.032Z,0.50
2018-02-19T05:05:42.287Z,0.60
2018-02-19T05:08:10.687Z,0.50
2018-02-19T05:10:38.934Z,0.60
2018-02-19T05:13:07.335Z,0.60
2018-02-19T05:15:35.600Z,0.60
2018-02-19T05:18:03.903Z,0.60
2018-02-19T05:20:32.935Z,0.60
2018-02-19T05:23:01.205Z,0.60
2018-02-19T05:25:29.504Z,0.60
2018-02-19T05:27:57.776Z,0.60
2018-02-19T05:30:26.023Z,0.60
2018-02-19T05:32:54.555Z,0.60
2018-02-19T05:35:22.827Z,0.60
2018-02-19T05:37:51.883Z,0.60
2018-02-19T05:40:20.134Z,0.60
2018-02-19T05:42:48.403Z,0.60
2018-02-19T05:45:16.722Z,0.60
2018-02-19T05:47:45.031Z,0.70
2018-02-19T05:50:13.259Z,0.70
2018-02-19T05:52:41.520Z,0.70
2018-02-19T05:55:09.870Z,0.70
2018-02-19T05:57:38.160Z,0.70
2018-02-19T06:00:06.425Z,0.70
2018-02-19T06:02:35.468Z,0.70
2018-02-19T06:05:03.877Z,0.70
2018-02-19T06:07:32.120Z,0.70
2018-02-19T06:10:00.360Z,0.70
2018-02-19T06:12:28.740Z,0.70
2018-02-19T06:14:56.949Z,0.70
2018-02-19T06:17:25.207Z,0.70
2018-02-19T06:19:53.478Z,0.70
2018-02-19T06:22:21.759Z,0.70
2018-02-19T06:24:50.299Z,0.70
2018-02-19T06:27:19.418Z,0.80
2018-02-19T06:29:47.671Z,0.70
2018-02-19T06:32:16.699Z,0.80
2018-02-19T06:34:45.037Z,0.70
2018-02-19T06:37:14.047Z,0.80
2018-02-19T06:39:42.330Z,0.70
2018-02-19T06:42:10.586Z,0.80
2018-02-19T06:44:39.031Z,0.80
2018-02-19T06:47:07.290Z,0.80
2018-02-19T06:49:37.076Z,0.80
2018-02-19T06:52:05.323Z,0.80
2018-02-19T06:54:33.598Z,0.80
2018-02-19T06:57:01.891Z,0.80
2018-02-19T06:59:30.152Z,0.80
2018-02-19T07:01:58.391Z,0.80
2018-02-19T07:04:26.686Z,0.80
2018-02-19T07:06:55.766Z,0.80
2018-02-19T07:09:24.188Z,0.80
2018-02-19T07:11:53.366Z,0.80
2018-02-19T07:14:21.675Z,0.80
2018-02-19T07:16:49.924Z,0.80
2018-02-19T07:19:18.199Z,0.90
2018-02-19T07:21:46.484Z,0.90
2018-02-19T07:24:14.726Z,0.90
2018-02-19T07:26:43.743Z,0.90
2018-02-19T07:29:12.019Z,0.90
2018-02-19T07:31:40.404Z,0.90
2018-02-19T07:34:08.666Z,1.00
2018-02-19T07:36:36.967Z,1.00
2018-02-19T07:39:05.277Z,1.00
2018-02-19T07:41:33.530Z,1.00
2018-02-19T07:44:01.937Z,1.00
2018-02-19T07:46:30.314Z,1.10
2018-02-19T07:48:58.567Z,1.10
2018-02-19T07:51:26.976Z,1.10
2018-02-19T07:53:55.772Z,1.20
2018-02-19T07:56:24.198Z,1.20
2018-02-19T07:58:52.470Z,1.30
2018-02-19T08:01:20.745Z,1.30
2018-02-19T08:03:49.014Z,1.30
2018-02-19T08:06:17.385Z,1.40
2018-02-19T08:08:45.675Z,1.40
2018-02-19T08:11:14.014Z,1.40
2018-02-19T08:13:42.400Z,1.50
2018-02-19T08:16:10.641Z,1.50
2018-02-19T08:18:39.667Z,1.60
2018-02-19T08:21:07.947Z,1.50
2018-02-19T08:23:36.215Z,1.60
2018-02-19T08:26:04.883Z,1.60
2018-02-19T08:28:33.896Z,1.70
2018-02-19T08:31:02.179Z,1.70
2018-02-19T08:33:30.436Z,1.80
2018-02-19T08:35:58.723Z,1.80
2018-02-19T08:38:27.071Z,1.80
2018-02-19T08:40:56.215Z,1.90
2018-02-19T08:43:25.313Z,1.90
2018-02-19T08:45:53.704Z,2.00
2018-02-19T08:48:22.091Z,2.00
2018-02-19T08:50:50.407Z,2.10
2018-02-19T08:53:18.689Z,2.10
2018-02-19T08:55:47.795Z,2.10
2018-02-19T08:58:16.062Z,2.00
2018-02-19T09:00:44.319Z,2.20
2018-02-19T09:03:12.701Z,2.10
2018-02-19T09:05:40.982Z,2.10
2018-02-19T09:08:09.256Z,2.20
2018-02-19T09:10:38.320Z,2.20
2018-02-19T09:13:07.353Z,2.20
2018-02-19T09:15:35.663Z,2.20
2018-02-19T09:18:03.907Z,2.30
2018-02-19T09:20:32.231Z,2.40
2018-02-19T09:23:00.485Z,2.40
2018-02-19T09:25:28.808Z,2.40
2018-02-19T09:27:58.051Z,2.50
2018-02-19T09:30:26.283Z,2.50
2018-02-19T09:32:54.632Z,2.50
2018-02-19T09:35:23.003Z,2.60
2018-02-19T09:37:51.259Z,2.70
2018-02-19T09:40:19.619Z,2.80
2018-02-19T09:42:47.991Z,2.80
2018-02-19T09:45:16.273Z,2.80
2018-02-19T09:47:44.566Z,2.80
2018-02-19T09:50:13.747Z,2.90
2018-02-19T09:52:43.069Z,2.90
2018-02-19T09:55:11.340Z,2.90
2018-02-19T09:57:39.630Z,3.00
2018-02-19T10:00:07.868Z,3.00
2018-02-19T10:02:36.158Z,3.00
2018-02-19T10:05:04.415Z,3.10
2018-02-19T10:07:32.695Z,3.10
2018-02-19T10:10:01.105Z,3.20
2018-02-19T10:12:29.331Z,3.20
2018-02-19T10:14:57.638Z,3.30
2018-02-19T10:17:25.891Z,3.30
2018-02-19T10:19:54.143Z,3.30
2018-02-19T10:22:22.408Z,3.40
2018-02-19T10:24:50.686Z,3.50
2018-02-19T10:27:19.057Z,3.50
2018-02-19T10:29:48.096Z,3.60
2018-02-19T10:32:16.434Z,3.50
2018-02-19T10:34:44.832Z,3.60
2018-02-19T10:37:13.244Z,3.60
2018-02-19T10:39:41.509Z,3.70
2018-02-19T10:42:09.827Z,3.70
2018-02-19T10:44:38.199Z,3.70
2018-02-19T10:47:06.552Z,3.80
2018-02-19T10:49:34.914Z,3.80
2018-02-19T10:52:03.215Z,3.80
2018-02-19T10:54:32.255Z,3.90
2018-02-19T10:57:00.549Z,3.80
2018-02-19T10:59:28.962Z,3.90
2018-02-19T11:01:57.228Z,3.90
2018-02-19T11:04:25.753Z,4.00
2018-02-19T11:06:54.008Z,4.00
2018-02-19T11:09:23.127Z,4.00
2018-02-19T11:11:51.557Z,4.00
2018-02-19T11:14:19.815Z,4.00
2018-02-19T11:16:48.078Z,4.10
2018-02-19T11:19:16.492Z,4.10
2018-02-19T11:21:44.728Z,4.20
2018-02-19T11:24:13.253Z,4.20
2018-02-19T11:26:41.495Z,4.30
2018-02-19T11:29:09.792Z,4.30
2018-02-19T11:31:38.844Z,4.30
2018-02-19T11:34:07.114Z,4.40
2018-02-19T11:36:35.376Z,4.40
2018-02-19T11:39:03.647Z,4.40
2018-02-19T11:41:31.950Z,4.40
2018-02-19T11:44:00.207Z,4.40
2018-02-19T11:46:28.535Z,4.40
2018-02-19T11:48:56.776Z,4.40
2018-02-19T11:51:25.096Z,4.50
2018-02-19T11:53:53.331Z,4.50
2018-02-19T11:56:21.774Z,4.50
2018-02-19T11:58:50.211Z,4.60
2018-02-19T12:01:18.492Z,4.60
2018-02-19T12:03:46.743Z,4.70
2018-02-19T12:06:15.062Z,4.80
2018-02-19T12:08:44.100Z,5.00
2018-02-19T12:11:12.374Z,4.90
2018-02-19T12:13:40.679Z,5.10
2018-02-19T12:16:08.988Z,5.10
2018-02-19T12:18:38.000Z,5.30
2018-02-19T12:21:06.325Z,5.20
2018-02-19T12:23:34.615Z,5.40
2018-02-19T12:26:02.889Z,5.30
2018-02-19T12:28:31.221Z,5.30
2018-02-19T12:30:59.475Z,5.30
2018-02-19T12:33:27.859Z,5.30
2018-02-19T12:35:56.131Z,5.30
2018-02-19T12:38:24.387Z,5.40
2018-02-19T12:40:53.411Z,5.50
2018-02-19T12:43:21.694Z,5.40
2018-02-19T12:45:50.104Z,5.50
2018-02-19T12:48:19.164Z,5.60
2018-02-19T12:50:47.478Z,5.60
2018-02-19T12:53:16.584Z,5.70
2018-02-19T12:55:45.760Z,5.60
2018-02-19T12:58:14.193Z,5.60
2018-02-19T13:00:42.608Z,5.60
2018-02-19T13:03:10.865Z,5.70
2018-02-19T13:05:39.150Z,5.70
2018-02-19T13:08:07.617Z,5.70
2018-02-19T13:10:35.890Z,5.70
2018-02-19T13:13:04.215Z,5.70
2018-02-19T13:15:33.297Z,5.70
2018-02-19T13:18:02.423Z,5.70
2018-02-19T13:20:30.706Z,5.60
2018-02-19T13:22:58.965Z,5.70
2018-02-19T13:25:28.183Z,5.60
2018-02-19T13:27:56.466Z,5.50
2018-02-19T13:30:24.735Z,5.60
2018-02-19T13:32:53.123Z,5.50
2018-02-19T13:35:21.384Z,5.50
2018-02-19T13:37:49.708Z,5.50
2018-02-19T13:40:17.954Z,5.50
2018-02-19T13:42:46.211Z,5.50
2018-02-19T13:45:14.536Z,5.50
2018-02-19T13:47:42.818Z,5.60
2018-02-19T13:50:11.047Z,5.60
2018-02-19T13:52:39.318Z,5.50
2018-02-19T13:55:07.688Z,5.50
2018-02-19T13:57:35.922Z,5.60
2018-02-19T14:00:06.300Z,5.60
2018-02-19T14:02:34.551Z,5.50
2018-02-19T14:05:02.894Z,5.60
2018-02-19T14:07:31.146Z,5.70
2018-02-19T14:09:59.424Z,5.60
2018-02-19T14:12:27.691Z,5.60
2018-02-19T14:14:55.959Z,5.60
2018-02-19T14:17:24.273Z,5.60
2018-02-19T14:19:52.611Z,5.60
2018-02-19T14:22:20.869Z,5.60
2018-02-19T14:24:49.153Z,5.70
2018-02-19T14:27:17.515Z,5.60
2018-02-19T14:29:45.895Z,5.70
2018-02-19T14:32:14.150Z,5.70
2018-02-19T14:34:42.467Z,5.70
2018-02-19T14:37:10.707Z,5.70
2018-02-19T14:39:38.983Z,5.70
2018-02-19T14:42:08.083Z,5.70
2018-02-19T14:44:36.526Z,5.80
2018-02-19T14:47:04.789Z,5.80
2018-02-19T14:49:34.604Z,5.70
2018-02-19T14:52:02.898Z,5.70
2018-02-19T14:54:31.242Z,5.70
2018-02-19T14:56:59.512Z,5.70
2018-02-19T14:59:29.548Z,5.80
2018-02-19T15:01:57.793Z,5.70
2018-02-19T15:04:26.963Z,5.80
2018-02-19T15:06:56.794Z,5.80
2018-02-19T15:09:26.660Z,5.80
2018-02-19T15:11:54.963Z,5.80
2018-02-19T15:14:23.335Z,5.80
2018-02-19T15:16:51.718Z,5.80
2018-02-19T15:19:20.723Z,5.80
2018-02-19T15:21:49.019Z,5.70
2018-02-19T15:24:17.398Z,5.80
2018-02-19T15:26:45.672Z,5.90
2018-02-19T15:29:13.946Z,5.90
2018-02-19T15:31:42.215Z,5.90
2018-02-19T15:34:10.467Z,5.90
2018-02-19T15:36:38.750Z,5.90
2018-02-19T15:39:07.047Z,5.90
2018-02-19T15:41:35.307Z,5.90
2018-02-19T15:44:03.574Z,5.90
2018-02-19T15:46:31.910Z,5.80
2018-02-19T15:49:00.219Z,5.80
2018-02-19T15:51:28.488Z,5.80
2018-02-19T15:53:56.799Z,5.70
2018-02-19T15:56:25.165Z,5.70
2018-02-19T15:58:53.448Z,5.70
2018-02-19T16:01:21.770Z,5.70
2018-02-19T16:03:50.799Z,5.70
2018-02-19T16:06:19.152Z,5.60
2018-02-19T16:08:47.467Z,5.60
2018-02-19T16:11:15.709Z,5.60
2018-02-19T16:13:43.990Z,5.60
2018-02-19T16:16:12.377Z,5.60
2018-02-19T16:18:40.736Z,5.50
2018-02-19T16:21:09.819Z,5.50
2018-02-19T16:23:38.424Z,5.40
2018-02-19T16:26:06.917Z,5.50
2018-02-19T16:28:35.245Z,5.50
2018-02-19T16:31:04.282Z,5.40
2018-02-19T16:33:33.420Z,5.40
2018-02-19T16:36:01.672Z,5.30
2018-02-19T16:38:29.935Z,5.40
2018-02-19T16:40:58.220Z,5.30
2018-02-19T16:43:26.490Z,5.30
2018-02-19T16:45:54.743Z,5.20
2018-02-19T16:48:23.087Z,5.20
2018-02-19T16:50:51.384Z,5.10
2018-02-19T16:53:19.639Z,5.10
2018-02-19T16:55:47.924Z,5.10
2018-02-19T16:58:16.329Z,5.00
2018-02-19T17:00:45.347Z,4.90
2018-02-19T17:03:13.598Z,4.80
2018-02-19T17:05:42.213Z,4.90
2018-02-19T17:08:10.435Z,4.90
2018-02-19T17:10:38.704Z,4.80
2018-02-19T17:13:07.041Z,4.80
2018-02-19T17:15:35.384Z,4.80
2018-02-19T17:18:03.722Z,4.70
2018-02-19T17:20:31.982Z,4.70
2018-02-19T17:23:01.011Z,4.70
2018-02-19T17:25:29.403Z,4.60
2018-02-19T17:27:57.749Z,4.70
2018-02-19T17:30:26.774Z,4.60
2018-02-19T17:32:55.016Z,4.60
2018-02-19T17:35:23.356Z,4.60
2018-02-19T17:37:51.635Z,4.60
2018-02-19T17:40:19.882Z,4.60
2018-02-19T17:42:48.158Z,4.60
2018-02-19T17:45:16.576Z,4.50
2018-02-19T17:47:45.604Z,4.50
2018-02-19T17:50:13.927Z,4.50
2018-02-19T17:52:42.158Z,4.50
2018-02-19T17:55:11.380Z,4.50
2018-02-19T17:57:39.616Z,4.50
2018-02-19T18:00:07.909Z,4.50
2018-02-19T18:02:36.168Z,4.50
2018-02-19T18:05:04.448Z,4.50
2018-02-19T18:07:32.727Z,4.50
2018-02-19T18:10:01.011Z,4.50
2018-02-19T18:12:29.362Z,4.50
2018-02-19T18:14:57.664Z,4.40
2018-02-19T18:17:25.932Z,4.40
2018-02-19T18:19:54.293Z,4.40
2018-02-19T18:22:22.520Z,4.40
2018-02-19T18:24:50.797Z,4.40
2018-02-19T18:27:19.875Z,4.30
2018-02-19T18:29:48.180Z,4.30
2018-02-19T18:32:17.183Z,4.30
2018-02-19T18:34:45.641Z,4.30
2018-02-19T18:37:13.910Z,4.30
2018-02-19T18:39:42.168Z,4.30
2018-02-19T18:42:10.423Z,4.30
2018-02-19T18:44:38.871Z,4.20
2018-02-19T18:47:07.155Z,4.20
2018-02-19T18:49:35.544Z,4.20
2018-02-19T18:52:03.834Z,4.20
2018-02-19T18:54:32.099Z,4.20
2018-02-19T18:57:00.629Z,4.20
2018-02-19T18:59:29.518Z,4.20
2018-02-19T19:01:57.804Z,4.20
2018-02-19T19:04:26.819Z,4.20
2018-02-19T19:06:55.107Z,4.20
2018-02-19T19:09:36.083Z,4.10
2018-02-19T19:12:04.364Z,4.10
2018-02-19T19:14:32.688Z,4.10
2018-02-19T19:17:00.910Z,4.10
2018-02-19T19:19:29.436Z,4.00
2018-02-19T19:21:57.761Z,4.00
2018-02-19T19:24:26.040Z,4.00
2018-02-19T19:26:54.301Z,4.00
2018-02-19T19:29:23.321Z,3.90
2018-02-19T19:31:51.578Z,3.90
2018-02-19T19:34:19.879Z,3.90
2018-02-19T19:36:48.163Z,3.90
2018-02-19T19:39:16.475Z,3.80
2018-02-19T19:41:45.508Z,3.80
2018-02-19T19:44:13.821Z,3.80
2018-02-19T19:46:42.222Z,3.80
2018-02-19T19:49:11.308Z,3.80
2018-02-19T19:51:39.551Z,3.80
2018-02-19T19:54:08.717Z,3.80
2018-02-19T19:56:36.956Z,3.80
2018-02-19T19:59:06.000Z,3.70
2018-02-19T20:01:34.344Z,3.70
2018-02-19T20:04:03.412Z,3.80
2018-02-19T20:06:32.456Z,3.80
2018-02-19T20:09:00.896Z,3.70
2018-02-19T20:11:29.166Z,3.80
2018-02-19T20:13:58.198Z,3.80
2018-02-19T20:16:26.471Z,3.70
2018-02-19T20:18:54.732Z,3.80
2018-02-19T20:21:23.181Z,3.80
2018-02-19T20:23:51.426Z,3.80
2018-02-19T20:26:20.508Z,3.70
2018-02-19T20:28:48.784Z,3.70
2018-02-19T20:31:17.022Z,3.70
2018-02-19T20:33:45.407Z,3.70
2018-02-19T20:36:13.691Z,3.70
2018-02-19T20:38:41.968Z,3.70
2018-02-19T20:41:10.298Z,3.60
2018-02-19T20:43:39.384Z,3.60
2018-02-19T20:46:08.468Z,3.70
2018-02-19T20:48:37.865Z,3.70
2018-02-19T20:51:06.286Z,3.60
2018-02-19T20:53:34.659Z,3.70
2018-02-19T20:56:04.183Z,3.70
2018-02-19T20:58:32.625Z,3.60
2018-02-19T21:01:02.079Z,3.70
2018-02-19T21:03:30.603Z,3.70
2018-02-19T21:05:58.916Z,3.70
2018-02-19T21:08:27.978Z,3.70
2018-02-19T21:10:57.041Z,3.70
2018-02-19T21:13:25.346Z,3.60
2018-02-19T21:15:54.382Z,3.70
2018-02-19T21:18:22.652Z,3.60
2018-02-19T21:20:50.972Z,3.60
2018-02-19T21:23:19.229Z,3.60
2018-02-19T21:25:47.492Z,3.60
2018-02-19T21:28:15.876Z,3.60
2018-02-19T21:30:44.195Z,3.60
2018-02-19T21:33:12.474Z,3.60
2018-02-19T21:35:41.551Z,3.60
2018-02-19T21:38:09.781Z,3.60
2018-02-19T21:40:38.083Z,3.60
2018-02-19T21:43:06.359Z,3.60
2018-02-19T21:45:34.622Z,3.60
2018-02-19T21:48:02.926Z,3.50
2018-02-19T21:50:31.953Z,3.50
2018-02-19T21:53:00.225Z,3.40
2018-02-19T21:55:28.478Z,3.40
2018-02-19T21:57:57.561Z,3.40
2018-02-19T22:00:25.799Z,3.40
2018-02-19T22:02:54.082Z,3.50
2018-02-19T22:05:22.452Z,3.50
2018-02-19T22:07:50.752Z,3.50
2018-02-19T22:10:18.979Z,3.50
2018-02-19T22:12:47.238Z,3.50
2018-02-19T22:15:15.696Z,3.50
2018-02-19T22:17:44.719Z,3.40
2018-02-19T22:20:13.060Z,3.40
2018-02-19T22:22:42.144Z,3.40
2018-02-19T22:25:10.451Z,3.40
2018-02-19T22:27:38.714Z,3.40
2018-02-19T22:30:07.740Z,3.40
2018-02-19T22:32:36.110Z,3.30
2018-02-19T22:35:04.374Z,3.30
2018-02-19T22:37:32.755Z,3.30
2018-02-19T22:40:01.060Z,3.40
2018-02-19T22:42:29.303Z,3.40
2018-02-19T22:44:57.578Z,3.30
2018-02-19T22:47:26.587Z,3.30
2018-02-19T22:49:54.943Z,3.30
2018-02-19T22:52:23.207Z,3.30
2018-02-19T22:54:52.239Z,3.30
2018-02-19T22:57:20.512Z,3.30
2018-02-19T22:59:48.765Z,3.30
2018-02-19T23:02:17.050Z,3.30
2018-02-19T23:04:45.324Z,3.30
2018-02-19T23:07:13.574Z,3.20
2018-02-19T23:09:41.824Z,3.30
2018-02-19T23:12:10.351Z,3.20
2018-02-19T23:14:38.595Z,3.20
2018-02-19T23:17:07.660Z,3.20
2018-02-19T23:19:36.878Z,3.10
2018-02-19T23:22:05.161Z,3.10
2018-02-19T23:24:33.509Z,3.10
2018-02-19T23:27:01.787Z,3.00
2018-02-19T23:29:30.060Z,3.00
2018-02-19T23:31:58.320Z,2.90
2018-02-19T23:34:26.733Z,2.90
2018-02-19T23:36:55.047Z,2.80
2018-02-19T23:39:23.315Z,2.70
2018-02-19T23:41:51.612Z,2.70
2018-02-19T23:44:19.883Z,2.50
2018-02-19T23:46:48.176Z,2.60
2018-02-19T23:49:16.459Z,2.50
2018-02-19T23:51:44.816Z,2.40
2018-02-19T23:54:18.853Z,2.40
2018-02-19T23:56:47.111Z,2.30
2018-02-19T23:59:15.481Z,2.20
